createdAt,value
2018-11-20T00:01:20.303Z,4.53
2018-11-20T00:06:24.702Z,4.60
2018-11-20T00:11:29.094Z,4.43
2018-11-20T00:17:03.784Z,4.60
2018-11-20T00:19:55.699Z,5.00
2018-11-20T00:22:35.500Z,5.67
2018-11-20T00:25:41.244Z,4.90
2018-11-20T00:28:28.034Z,5.03
2018-11-20T00:31:19.100Z,4.50
2018-11-20T00:34:24.920Z,4.83
2018-11-20T00:37:05.585Z,5.27
2018-11-20T00:39:51.616Z,5.13
2018-11-20T00:42:46.558Z,5.60
2018-11-20T00:48:02.588Z,4.80
2018-11-20T00:53:06.197Z,4.80
2018-11-20T00:56:41.419Z,6.13
2018-11-20T00:59:29.868Z,5.53
2018-11-20T01:02:17.236Z,5.50
2018-11-20T01:05:23.716Z,5.77
2018-11-20T01:08:17.544Z,5.70
2018-11-20T01:11:04.281Z,5.20
2018-11-20T01:14:07.652Z,5.90
2018-11-20T01:16:54.956Z,5.60
2018-11-20T01:19:41.467Z,5.53
2018-11-20T01:22:28.263Z,5.10
2018-11-20T01:25:36.544Z,5.67
2018-11-20T01:28:24.783Z,5.40
2018-11-20T01:31:16.502Z,5.03
2018-11-20T01:34:35.844Z,5.40
2018-11-20T01:37:22.447Z,5.70
2018-11-20T01:40:13.514Z,5.47
2018-11-20T01:42:59.929Z,5.37
2018-11-20T01:45:29.570Z,5.90
2018-11-20T01:48:07.321Z,6.23
2018-11-20T01:50:44.210Z,6.33
2018-11-20T01:53:36.369Z,5.83
2018-11-20T01:56:33.230Z,5.70
2018-11-20T01:59:09.741Z,6.27
2018-11-20T02:02:06.918Z,6.07
2018-11-20T02:04:55.107Z,5.90
2018-11-20T02:07:34.528Z,6.57
2018-11-20T02:10:21.152Z,6.37
2018-11-20T02:13:43.516Z,6.90
2018-11-20T02:16:37.272Z,6.20
2018-11-20T02:19:31.142Z,5.93
2018-11-20T02:22:26.023Z,6.70
2018-11-20T02:25:36.181Z,6.83
2018-11-20T02:28:20.066Z,6.00
2018-11-20T02:31:01.196Z,6.00
2018-11-20T02:33:57.997Z,5.97
2018-11-20T02:36:48.937Z,6.30
2018-11-20T02:39:35.444Z,6.40
2018-11-20T02:42:22.286Z,6.60
2018-11-20T02:47:23.191Z,6.40
2018-11-20T02:50:09.756Z,7.00
2018-11-20T02:53:00.585Z,7.07
2018-11-20T02:56:04.678Z,7.00
2018-11-20T02:58:48.899Z,6.60
2018-11-20T03:01:26.726Z,7.03
2018-11-20T03:04:32.404Z,6.90
2018-11-20T03:07:19.117Z,6.70
2018-11-20T03:10:05.468Z,7.10
2018-11-20T03:12:54.189Z,6.90
2018-11-20T03:16:04.167Z,7.20
2018-11-20T03:18:41.570Z,7.30
2018-11-20T03:21:25.920Z,7.53
2018-11-20T03:24:31.692Z,7.60
2018-11-20T03:27:13.807Z,7.43
2018-11-20T03:30:49.328Z,8.10
2018-11-20T03:33:26.307Z,7.10
2018-11-20T03:36:12.775Z,7.40
2018-11-20T03:38:59.379Z,7.20
2018-11-20T03:41:48.158Z,7.00
2018-11-20T03:44:48.579Z,6.80
2018-11-20T03:47:27.717Z,7.50
2018-11-20T03:50:14.256Z,7.43
2018-11-20T03:53:00.877Z,6.87
2018-11-20T03:55:57.174Z,6.90
2018-11-20T03:58:49.468Z,7.53
2018-11-20T04:01:55.687Z,6.73
2018-11-20T04:04:50.916Z,6.80
2018-11-20T04:07:37.539Z,6.97
2018-11-20T04:10:22.993Z,6.33
2018-11-20T04:12:58.552Z,6.90
2018-11-20T04:16:14.823Z,7.10
2018-11-20T04:19:03.017Z,6.40
2018-11-20T04:22:00.260Z,6.90
2018-11-20T04:24:28.998Z,6.80
2018-11-20T04:27:06.369Z,7.80
2018-11-20T04:29:55.031Z,7.07
2018-11-20T04:32:52.116Z,7.13
2018-11-20T04:38:30.245Z,7.20
2018-11-20T04:41:18.602Z,6.53
2018-11-20T04:44:22.832Z,6.80
2018-11-20T04:47:17.426Z,7.40
2018-11-20T04:50:14.471Z,7.40
2018-11-20T04:53:08.829Z,7.53
2018-11-20T04:58:18.341Z,7.00
2018-11-20T05:08:23.362Z,7.90
2018-11-20T05:13:26.939Z,8.00
2018-11-20T05:16:27.053Z,7.93
2018-11-20T05:19:15.231Z,7.10
2018-11-20T05:22:07.845Z,7.03
2018-11-20T05:25:15.085Z,7.03
2018-11-20T05:28:15.163Z,7.60
2018-11-20T05:31:06.174Z,7.30
2018-11-20T05:34:16.256Z,7.20
2018-11-20T05:36:55.792Z,7.90
2018-11-20T05:39:40.647Z,6.93
2018-11-20T05:42:25.030Z,7.50
2018-11-20T05:45:35.277Z,7.50
2018-11-20T05:48:21.798Z,6.87
2018-11-20T05:51:12.654Z,6.70
2018-11-20T05:54:18.638Z,6.77
2018-11-20T05:56:56.878Z,7.30
2018-11-20T05:59:36.421Z,7.40
2018-11-20T06:02:42.827Z,8.20
2018-11-20T06:05:38.667Z,7.10
2018-11-20T06:08:25.597Z,7.57
2018-11-20T06:11:19.545Z,8.50
2018-11-20T06:14:44.772Z,8.57
2018-11-20T06:17:36.310Z,9.60
2018-11-20T06:20:26.857Z,8.00
2018-11-20T06:23:27.310Z,8.60
2018-11-20T06:26:13.649Z,7.90
2018-11-20T06:28:50.598Z,8.23
2018-11-20T06:31:44.299Z,8.20
2018-11-20T06:36:48.469Z,7.93
2018-11-20T06:39:37.498Z,8.90
2018-11-20T06:42:21.196Z,8.63
2018-11-20T06:45:26.356Z,8.90
2018-11-20T06:48:20.582Z,8.33
2018-11-20T06:51:14.448Z,8.20
2018-11-20T06:54:27.282Z,8.50
2018-11-20T06:57:30.597Z,8.27
2018-11-20T07:00:17.310Z,8.80
2018-11-20T07:03:11.393Z,9.07
2018-11-20T07:06:33.678Z,8.80
2018-11-20T07:09:20.563Z,9.03
2018-11-20T07:12:14.479Z,8.57
2018-11-20T07:15:32.407Z,9.87
2018-11-20T07:18:18.967Z,9.83
2018-11-20T07:21:02.577Z,9.00
2018-11-20T07:24:23.437Z,9.20
2018-11-20T07:29:31.399Z,9.57
2018-11-20T07:32:22.291Z,9.37
2018-11-20T07:35:47.562Z,9.93
2018-11-20T07:38:34.168Z,9.93
2018-11-20T07:41:32.639Z,10.50
2018-11-20T07:44:30.352Z,11.10
2018-11-20T07:47:08.320Z,10.67
2018-11-20T07:49:56.606Z,11.00
2018-11-20T07:52:50.425Z,11.40
2018-11-20T07:57:47.885Z,10.13
2018-11-20T08:00:41.862Z,10.20
2018-11-20T08:03:39.196Z,10.00
2018-11-20T08:06:25.912Z,9.53
2018-11-20T08:09:12.990Z,9.97
2018-11-20T08:12:00.707Z,9.60
2018-11-20T08:15:16.738Z,9.90
2018-11-20T08:17:55.459Z,9.30
2018-11-20T08:20:39.139Z,9.47
2018-11-20T08:23:32.951Z,9.63
2018-11-20T08:26:19.687Z,9.67
2018-11-20T08:29:01.824Z,10.00
2018-11-20T08:31:51.781Z,9.50
2018-11-20T08:39:56.936Z,9.60
2018-11-20T08:43:00.244Z,9.80
2018-11-20T08:46:18.425Z,10.47
2018-11-20T08:48:58.061Z,8.87
2018-11-20T08:51:39.753Z,9.70
2018-11-20T08:54:46.977Z,9.97
2018-11-20T08:57:33.656Z,9.33
2018-11-20T09:00:20.297Z,9.30
2018-11-20T09:03:06.986Z,9.07
2018-11-20T09:06:12.437Z,9.70
2018-11-20T09:08:59.066Z,9.33
2018-11-20T09:11:59.033Z,9.07
2018-11-20T09:15:04.750Z,9.20
2018-11-20T09:17:50.636Z,10.17
2018-11-20T09:20:39.005Z,9.17
2018-11-20T09:23:29.825Z,10.13
2018-11-20T09:26:12.838Z,9.30
2018-11-20T09:28:59.770Z,10.20
2018-11-20T09:31:46.593Z,10.20
2018-11-20T09:43:25.332Z,10.10
2018-11-20T09:45:55.310Z,9.70
2018-11-20T09:53:30.522Z,10.83
2018-11-20T10:01:21.482Z,11.07
2018-11-20T10:06:24.359Z,9.80
2018-11-20T10:13:58.771Z,10.50
2018-11-20T10:16:45.506Z,11.27
2018-11-20T10:19:31.899Z,10.67
2018-11-20T10:22:19.514Z,10.97
2018-11-20T10:27:21.025Z,11.57
2018-11-20T10:34:59.358Z,11.83
2018-11-20T10:37:43.016Z,11.07
2018-11-20T10:40:31.230Z,10.80
2018-11-20T10:43:21.939Z,10.70
2018-11-20T10:46:04.871Z,11.97
2018-11-20T10:48:58.624Z,11.10
2018-11-20T10:51:46.768Z,12.37
2018-11-20T10:54:53.969Z,11.00
2018-11-20T10:57:53.823Z,11.40
2018-11-20T11:00:40.707Z,11.40
2018-11-20T11:03:19.115Z,11.37
2018-11-20T11:06:18.923Z,12.00
2018-11-20T11:09:06.720Z,11.13
2018-11-20T11:12:13.828Z,16.03
2018-11-20T11:15:19.558Z,14.97
2018-11-20T11:18:09.134Z,13.73
2018-11-20T11:20:55.622Z,12.87
2018-11-20T11:23:58.622Z,11.93
2018-11-20T11:26:45.153Z,11.33
2018-11-20T11:29:31.613Z,11.73
2018-11-20T11:32:18.190Z,11.97
2018-11-20T11:34:48.001Z,11.23
2018-11-20T11:37:34.490Z,11.57
2018-11-20T11:40:28.329Z,11.33
2018-11-20T11:43:11.315Z,11.43
2018-11-20T11:46:16.985Z,11.40
2018-11-20T11:49:03.771Z,11.53
2018-11-20T11:51:50.217Z,10.20
2018-11-20T11:54:47.009Z,11.60
2018-11-20T11:57:33.855Z,10.07
2018-11-20T12:00:33.422Z,10.03
2018-11-20T12:03:20.234Z,9.83
2018-11-20T12:05:56.958Z,10.87
2018-11-20T12:08:36.651Z,9.70
2018-11-20T12:11:23.599Z,9.70
2018-11-20T12:14:29.228Z,10.30
2018-11-20T12:17:11.749Z,9.03
2018-11-20T12:19:58.420Z,9.70
2018-11-20T12:22:39.538Z,10.03
2018-11-20T12:25:43.584Z,8.60
2018-11-20T12:28:40.391Z,9.03
2018-11-20T12:31:31.590Z,9.50
2018-11-20T12:34:49.325Z,10.10
2018-11-20T12:37:52.383Z,10.00
2018-11-20T12:40:52.485Z,9.53
2018-11-20T12:43:38.973Z,10.10
2018-11-20T12:46:25.639Z,9.60
2018-11-20T12:49:32.119Z,9.17
2018-11-20T12:52:20.089Z,10.00
2018-11-20T12:55:30.308Z,9.80
2018-11-20T12:58:09.994Z,10.20
2018-11-20T13:00:59.241Z,9.80
2018-11-20T13:03:44.820Z,9.43
2018-11-20T13:06:15.371Z,9.03
2018-11-20T13:09:00.984Z,9.00
2018-11-20T13:12:00.609Z,9.20
2018-11-20T13:19:45.191Z,8.90
2018-11-20T13:22:37.439Z,9.30
2018-11-20T13:25:56.228Z,9.57
2018-11-20T13:28:56.230Z,8.20
2018-11-20T13:31:44.701Z,9.00
2018-11-20T13:34:43.627Z,8.13
2018-11-20T13:37:32.029Z,8.80
2018-11-20T13:40:20.835Z,9.30
2018-11-20T13:43:07.272Z,8.73
2018-11-20T13:46:18.006Z,8.97
2018-11-20T13:49:02.586Z,10.13
2018-11-20T13:51:48.873Z,9.67
2018-11-20T13:55:02.033Z,9.13
2018-11-20T13:57:46.035Z,9.00
2018-11-20T14:00:32.417Z,9.57
2018-11-20T14:03:11.211Z,9.80
2018-11-20T14:06:27.756Z,8.33
2018-11-20T14:09:45.670Z,9.60
2018-11-20T14:12:25.225Z,8.77
2018-11-20T14:17:52.130Z,9.03
2018-11-20T14:20:46.006Z,8.90
2018-11-20T14:23:40.361Z,9.10
2018-11-20T14:26:24.662Z,8.40
2018-11-20T14:29:05.073Z,8.60
2018-11-20T14:31:51.573Z,9.30
2018-11-20T14:34:51.659Z,8.60
2018-11-20T14:37:46.128Z,9.43
2018-11-20T14:40:39.775Z,9.50
2018-11-20T14:43:16.840Z,9.40
2018-11-20T14:46:10.846Z,8.90
2018-11-20T14:49:01.228Z,8.50
2018-11-20T14:51:50.142Z,7.90
2018-11-20T14:55:12.156Z,9.23
2018-11-20T14:57:58.681Z,8.87
2018-11-20T15:00:45.340Z,9.70
2018-11-20T15:03:37.042Z,9.00
2018-11-20T15:06:24.081Z,9.00
2018-11-20T15:09:19.015Z,8.97
2018-11-20T15:12:05.159Z,8.60
2018-11-20T15:15:10.072Z,9.20
2018-11-20T15:18:10.001Z,9.10
2018-11-20T15:20:58.240Z,9.50
2018-11-20T15:23:52.112Z,10.20
2018-11-20T15:26:38.660Z,9.10
2018-11-20T15:29:25.473Z,8.97
2018-11-20T15:32:13.934Z,9.30
2018-11-20T15:35:19.869Z,9.07
2018-11-20T15:38:06.460Z,9.07
2018-11-20T15:40:53.199Z,9.90
2018-11-20T15:43:41.387Z,9.73
2018-11-20T15:46:29.552Z,9.27
2018-11-20T15:49:16.128Z,9.93
2018-11-20T15:52:02.638Z,9.23
2018-11-20T15:55:08.181Z,9.53
2018-11-20T15:57:59.907Z,9.50
2018-11-20T16:00:46.958Z,8.90
2018-11-20T16:03:33.524Z,9.90
2018-11-20T16:06:15.940Z,9.47
2018-11-20T16:09:02.675Z,10.07
2018-11-20T16:11:49.255Z,10.70
2018-11-20T16:14:50.480Z,10.70
2018-11-20T16:17:37.210Z,11.03
2018-11-20T16:20:18.990Z,10.70
2018-11-20T16:23:12.939Z,10.30
2018-11-20T16:28:24.559Z,10.93
2018-11-20T16:31:11.480Z,10.70
2018-11-20T16:34:23.409Z,10.70
2018-11-20T16:37:04.040Z,10.23
2018-11-20T16:40:06.558Z,10.40
2018-11-20T16:43:00.653Z,12.13
2018-11-20T16:46:09.633Z,11.60
2018-11-20T16:48:58.215Z,10.37
2018-11-20T16:51:44.717Z,11.37
2018-11-20T16:54:54.893Z,11.90
2018-11-20T16:57:43.042Z,11.27
2018-11-20T17:00:29.944Z,12.70
2018-11-20T17:03:22.890Z,11.70
2018-11-20T17:06:03.483Z,12.40
2018-11-20T17:08:51.674Z,12.70
2018-11-20T17:11:45.677Z,12.63
2018-11-20T17:14:41.010Z,12.20
2018-11-20T17:17:25.930Z,12.10
2018-11-20T17:20:10.716Z,13.80
2018-11-20T17:23:04.032Z,13.83
2018-11-20T17:26:16.325Z,13.00
2018-11-20T17:29:03.148Z,13.70
2018-11-20T17:31:49.651Z,13.50
2018-11-20T17:34:55.474Z,14.30
2018-11-20T17:38:01.601Z,13.60
2018-11-20T17:40:48.670Z,12.77
2018-11-20T17:43:52.043Z,13.30
2018-11-20T17:46:40.566Z,14.30
2018-11-20T17:49:28.887Z,13.73
2018-11-20T17:52:19.376Z,13.60
2018-11-20T17:55:33.282Z,13.77
2018-11-20T17:58:21.668Z,13.87
2018-11-20T18:01:18.468Z,14.50
2018-11-20T18:08:52.161Z,14.90
2018-11-20T18:13:56.551Z,15.97
2018-11-20T18:16:59.705Z,16.00
2018-11-20T18:19:47.884Z,14.80
2018-11-20T18:22:31.418Z,14.90
2018-11-20T18:27:32.008Z,13.90
2018-11-20T18:30:24.304Z,14.80
2018-11-20T18:33:10.934Z,14.47
2018-11-20T18:36:06.877Z,14.90
2018-11-20T18:39:13.168Z,15.27
2018-11-20T18:42:04.251Z,13.70
2018-11-20T18:45:17.227Z,14.23
2018-11-20T18:48:09.770Z,14.10
2018-11-20T18:50:54.311Z,13.87
2018-11-20T18:53:41.422Z,15.20
2018-11-20T18:56:41.769Z,15.10
2018-11-20T18:59:25.747Z,14.60
2018-11-20T19:02:23.330Z,14.20
2018-11-20T19:07:44.753Z,14.10
2018-11-20T19:18:17.054Z,13.57
2018-11-20T19:21:36.055Z,15.03
2018-11-20T19:24:22.554Z,15.10
2018-11-20T19:27:24.968Z,15.90
2018-11-20T19:30:30.369Z,15.77
2018-11-20T19:33:15.782Z,14.43
2018-11-20T19:35:56.559Z,15.80
2018-11-20T19:38:39.456Z,16.40
2018-11-20T19:41:25.508Z,15.50
2018-11-20T19:44:12.020Z,14.50
2018-11-20T19:47:05.072Z,15.60
2018-11-20T19:49:52.704Z,15.60
2018-11-20T19:52:42.564Z,14.73
2018-11-20T19:55:48.212Z,15.80
2018-11-20T19:58:38.713Z,16.20
2018-11-20T20:01:28.165Z,15.60
2018-11-20T20:04:18.396Z,15.80
2018-11-20T20:07:04.915Z,15.63
2018-11-20T20:09:45.677Z,16.47
2018-11-20T20:12:32.098Z,16.47
2018-11-20T20:15:17.166Z,17.77
2018-11-20T20:18:22.431Z,16.80
2018-11-20T20:21:20.230Z,16.93
2018-11-20T20:24:13.497Z,16.60
2018-11-20T20:27:03.598Z,16.67
2018-11-20T20:29:49.563Z,16.47
2018-11-20T20:32:25.372Z,16.67
2018-11-20T20:35:11.043Z,16.57
2018-11-20T20:37:57.181Z,16.20
2018-11-20T20:40:53.462Z,16.40
2018-11-20T20:43:48.215Z,16.60
2018-11-20T20:46:35.574Z,16.73
2018-11-20T20:49:16.559Z,16.07
2018-11-20T20:52:02.473Z,16.60
2018-11-20T20:54:55.107Z,17.50
2018-11-20T20:57:41.762Z,18.27
2018-11-20T21:00:29.564Z,18.30
2018-11-20T21:03:06.514Z,17.87
2018-11-20T21:05:52.266Z,18.50
2018-11-20T21:08:51.430Z,18.23
2018-11-20T21:11:40.093Z,19.20
2018-11-20T21:14:26.327Z,19.10
2018-11-20T21:17:13.693Z,18.97
2018-11-20T21:20:01.964Z,19.17
2018-11-20T21:22:50.252Z,20.13
2018-11-20T21:25:38.706Z,18.63
2018-11-20T21:28:24.966Z,19.70
2018-11-20T21:31:18.309Z,19.37
2018-11-20T21:34:04.000Z,19.00
2018-11-20T21:36:45.516Z,20.13
2018-11-20T21:39:28.478Z,19.90
2018-11-20T21:42:05.957Z,20.83
2018-11-20T21:44:51.716Z,22.23
2018-11-20T21:47:48.400Z,22.03
2018-11-20T21:50:42.639Z,22.67
2018-11-20T21:53:32.513Z,21.97
2018-11-20T21:56:18.572Z,22.97
2018-11-20T21:59:06.322Z,23.37
2018-11-20T22:01:54.140Z,22.37
2018-11-20T22:04:35.237Z,23.67
2018-11-20T22:07:19.506Z,22.80
2018-11-20T22:10:06.826Z,24.90
2018-11-20T22:12:52.855Z,24.33
2018-11-20T22:15:52.003Z,23.30
2018-11-20T22:18:54.479Z,24.10
2018-11-20T22:21:37.873Z,23.57
2018-11-20T22:24:24.124Z,23.17
2018-11-20T22:27:20.335Z,23.23
2018-11-20T22:30:04.544Z,23.60
2018-11-20T22:32:50.872Z,22.60
2018-11-20T22:35:36.857Z,24.43
2018-11-20T22:38:12.954Z,25.10
2018-11-20T22:40:56.892Z,24.27
2018-11-20T22:43:37.310Z,23.40
2018-11-20T22:46:24.628Z,24.93
2018-11-20T22:49:10.721Z,24.40
2018-11-20T22:51:48.788Z,23.70
2018-11-20T22:54:29.708Z,24.03
2018-11-20T22:57:06.173Z,25.63
2018-11-20T22:59:53.487Z,26.10
2018-11-20T23:02:39.342Z,24.57
2018-11-20T23:05:34.546Z,25.80
2018-11-20T23:08:02.683Z,26.00
2018-11-20T23:10:30.808Z,25.13
2018-11-20T23:12:58.937Z,26.20
2018-11-20T23:15:27.054Z,25.07
2018-11-20T23:17:55.240Z,25.47
2018-11-20T23:20:23.338Z,24.67
2018-11-20T23:22:51.475Z,24.60
2018-11-20T23:25:19.600Z,25.27
2018-11-20T23:27:47.745Z,26.20
2018-11-20T23:30:16.651Z,26.23
2018-11-20T23:32:44.793Z,25.80
2018-11-20T23:35:13.388Z,26.90
2018-11-20T23:37:42.131Z,25.30
2018-11-20T23:40:11.442Z,27.40
2018-11-20T23:42:39.683Z,25.80
2018-11-20T23:45:09.666Z,26.93
2018-11-20T23:47:37.822Z,26.37
2018-11-20T23:50:07.993Z,26.43
2018-11-20T23:52:36.563Z,25.30
2018-11-20T23:55:06.359Z,27.57
2018-11-20T23:57:34.523Z,27.70
